Time;durP1;ratioP1;P1;durP2;ratioP2;P2;SDS_P1;SDS_P2;PMS_P1;PMS_P2;Temp;Humidity;BMP_temperature;BMP_pressure;BME280_temperature;BME280_humidity;BME280_pressure;Samples;Min_cycle;Max_cycle;Signal;HPM_P1;HPM_P2
2022/09/14 04:27:00;;;;;;;7.53;6.30;;;;;;;10.61;100.00;97127.27;1890652;76;22193;-56
2022/09/14 04:29:29;;;;;;;6.92;4.92;;;;;;;10.61;100.00;97125.13;1861534;77;20860;-57
2022/09/14 04:31:56;;;;;;;6.78;3.90;;;;;;;10.69;100.00;97122.46;1861820;77;21323;-58
2022/09/14 04:34:23;;;;;;;5.42;3.30;;;;;;;10.76;100.00;97108.64;1861413;77;20876;-58
2022/09/14 04:36:50;;;;;;;4.30;3.42;;;;;;;10.82;100.00;97106.83;1861571;77;20898;-63
2022/09/14 04:39:17;;;;;;;3.77;3.20;;;;;;;10.92;100.00;97120.48;1861755;77;21303;-57
2022/09/14 04:41:43;;;;;;;4.42;2.75;;;;;;;11.00;100.00;97117.80;1861502;77;20888;-56
2022/09/14 04:44:11;;;;;;;8.45;3.40;;;;;;;11.10;100.00;97110.55;1861550;77;21188;-55
2022/09/14 04:46:40;;;;;;;5.37;3.37;;;;;;;11.16;100.00;97114.67;1861761;77;20906;-57
2022/09/14 04:49:07;;;;;;;5.75;3.10;;;;;;;11.24;100.00;97109.86;1861554;77;20832;-57
2022/09/14 04:51:37;;;;;;;3.95;2.77;;;;;;;11.31;100.00;97108.83;1861377;77;20887;-57
2022/09/14 04:54:05;;;;;;;3.92;2.80;;;;;;;11.38;100.00;97103.78;1861520;77;20966;-58
2022/09/14 04:56:35;;;;;;;5.90;3.15;;;;;;;11.45;100.00;97101.41;1859126;77;21113;-57
2022/09/14 04:59:04;;;;;;;8.30;3.40;;;;;;;11.52;100.00;97098.49;1852843;77;20952;-57
2022/09/14 05:01:39;;;;;;;5.60;3.20;;;;;;;11.59;100.00;97098.00;1851695;77;20992;-57
2022/09/14 05:04:07;;;;;;;6.75;3.45;;;;;;;11.64;100.00;97094.62;1849042;75;20995;-57
2022/09/14 05:06:36;;;;;;;4.53;3.00;;;;;;;11.71;100.00;97090.68;1844124;77;20958;-57
2022/09/14 05:09:05;;;;;;;4.15;3.08;;;;;;;11.75;100.00;97083.59;1845853;77;21100;-56
2022/09/14 05:11:36;;;;;;;5.50;3.37;;;;;;;11.79;100.00;97090.68;1842944;77;20959;-57
2022/09/14 05:14:03;;;;;;;4.28;3.00;;;;;;;11.83;100.00;97092.16;1846905;77;21009;-58
2022/09/14 05:16:34;;;;;;;5.03;3.45;;;;;;;11.85;100.00;97084.02;1846222;77;20919;-55
2022/09/14 05:19:04;;;;;;;4.62;3.20;;;;;;;11.88;100.00;97081.26;1849668;77;21090;-57
2022/09/14 05:21:35;;;;;;;8.60;3.30;;;;;;;11.94;100.00;97079.42;1853048;77;21284;-56
2022/09/14 05:24:11;;;;;;;3.65;3.10;;;;;;;11.99;100.00;97084.62;1833616;77;20892;-56
2022/09/14 05:26:38;;;;;;;3.42;2.98;;;;;;;12.05;100.00;97086.03;1826734;77;21496;-58
2022/09/14 05:29:04;;;;;;;5.12;3.50;;;;;;;12.08;100.00;97081.92;1823188;77;21078;-56
2022/09/14 05:31:31;;;;;;;5.90;3.75;;;;;;;12.10;100.00;97082.39;1818774;77;21425;-57
2022/09/14 05:33:58;;;;;;;5.00;3.30;;;;;;;12.08;100.00;97069.27;1816561;77;21104;-57
2022/09/14 05:36:27;;;;;;;5.75;2.92;;;;;;;12.07;100.00;97072.28;1825569;77;20949;-56
2022/09/14 05:38:56;;;;;;;4.70;3.08;;;;;;;12.05;100.00;97071.27;1828200;77;20840;-57
2022/09/14 05:41:23;;;;;;;5.65;3.58;;;;;;;12.04;100.00;97057.61;1813229;77;21476;-55
2022/09/14 05:43:50;;;;;;;6.12;3.67;;;;;;;12.05;100.00;97060.54;1814588;77;20914;-57
2022/09/14 05:46:19;;;;;;;10.78;3.45;;;;;;;12.10;100.00;97061.70;1817280;77;21540;-56
2022/09/14 05:48:50;;;;;;;5.42;3.08;;;;;;;12.17;100.00;97064.68;1804916;77;21465;-57
2022/09/14 05:51:19;;;;;;;4.75;3.00;;;;;;;12.26;100.00;97064.63;1816800;77;21045;-56
2022/09/14 05:53:54;;;;;;;5.85;3.47;;;;;;;12.35;100.00;97057.31;1819898;77;20991;-57
2022/09/14 05:56:23;;;;;;;5.60;3.33;;;;;;;12.45;100.00;97060.19;1808387;78;21050;-57
2022/09/14 05:58:49;;;;;;;5.08;3.83;;;;;;;12.51;100.00;97056.99;1819040;77;22006;-57
2022/09/14 06:01:21;;;;;;;3.45;2.98;;;;;;;12.55;100.00;97051.77;1813990;78;20986;-57
2022/09/14 06:03:49;;;;;;;5.53;2.70;;;;;;;12.59;100.00;97054.03;1811170;77;20903;-57
2022/09/14 06:06:18;;;;;;;4.28;2.60;;;;;;;12.67;100.00;97050.52;1810508;78;21046;-58
2022/09/14 06:08:48;;;;;;;3.65;2.90;;;;;;;12.79;100.00;97045.99;1817470;77;20985;-58
2022/09/14 06:11:16;;;;;;;6.53;3.20;;;;;;;12.93;100.00;97045.18;1814579;77;21268;-58
2022/09/14 06:13:43;;;;;;;5.50;3.20;;;;;;;13.07;100.00;97049.00;1809176;78;21085;-57
2022/09/14 06:16:14;;;;;;;6.20;2.98;;;;;;;13.21;100.00;97048.17;1815424;77;21037;-58
2022/09/14 06:18:43;;;;;;;5.42;3.00;;;;;;;13.35;100.00;97050.03;1813091;78;21072;-58
2022/09/14 06:21:14;;;;;;;4.85;2.60;;;;;;;13.47;100.00;97055.42;1820985;77;21197;-58
2022/09/14 06:23:54;;;;;;;4.78;3.10;;;;;;;13.59;100.00;97046.06;1803680;77;20938;-58
2022/09/14 06:26:21;;;;;;;5.15;3.65;;;;;;;13.73;100.00;97053.27;1827890;77;21551;-58
2022/09/14 06:28:48;;;;;;;4.22;2.95;;;;;;;13.85;100.00;97047.12;1819199;77;21138;-60
2022/09/14 06:31:16;;;;;;;4.00;3.08;;;;;;;13.96;100.00;97050.20;1825783;78;21030;-58
2022/09/14 06:33:45;;;;;;;3.60;2.75;;;;;;;14.07;100.00;97048.63;1823594;77;21672;-58
2022/09/14 06:36:16;;;;;;;4.00;2.30;;;;;;;14.17;100.00;97050.34;1827582;77;21312;-57
2022/09/14 06:38:43;;;;;;;3.00;2.40;;;;;;;14.27;100.00;97052.57;1833015;77;21431;-57
2022/09/14 06:41:14;;;;;;;8.35;2.80;;;;;;;14.37;100.00;97054.06;1765721;80;21058;-57
2022/09/14 06:43:41;;;;;;;2.85;2.42;;;;;;;14.49;100.00;97059.45;1819342;77;21085;-57
2022/09/14 06:46:18;;;;;;;2.98;2.10;;;;;;;14.58;100.00;97062.81;1824502;77;21094;-57
2022/09/14 06:48:59;;;;;;;3.17;2.45;;;;;;;14.69;100.00;97053.17;1821923;77;21779;-57
2022/09/14 06:51:42;;;;;;;3.52;2.80;;;;;;;14.80;99.52;97058.31;1824454;78;20952;-56
2022/09/14 06:54:15;;;;;;;3.95;3.00;;;;;;;14.90;98.85;97060.55;1817816;77;20850;-58
2022/09/14 06:56:49;;;;;;;5.58;3.17;;;;;;;15.00;98.48;97064.69;1832112;77;20956;-58
2022/09/14 06:59:17;;;;;;;3.22;2.50;;;;;;;15.10;98.14;97063.44;1829518;78;20939;-57
2022/09/14 07:01:48;;;;;;;3.42;2.10;;;;;;;15.15;96.58;97055.88;1822298;77;21280;-57
2022/09/14 07:04:15;;;;;;;2.67;2.30;;;;;;;15.21;95.98;97061.82;1820727;77;21506;-57
2022/09/14 07:06:48;;;;;;;3.00;2.45;;;;;;;15.27;94.43;97055.84;1833093;77;21446;-57
2022/09/14 07:09:16;;;;;;;4.83;3.08;;;;;;;15.36;93.95;97075.36;1831691;77;20955;-57
2022/09/14 07:11:44;;;;;;;3.75;2.67;;;;;;;15.45;93.86;97064.47;1810787;77;21050;-57
2022/09/14 07:14:11;;;;;;;5.30;2.40;;;;;;;15.53;92.66;97062.17;1828613;78;21864;-56
2022/09/14 07:16:39;;;;;;;6.30;2.50;;;;;;;15.57;91.07;97069.23;1821018;77;21200;-56
2022/09/14 07:19:15;;;;;;;5.17;2.20;;;;;;;15.62;89.50;97068.20;1813561;78;21090;-56
2022/09/14 07:21:43;;;;;;;4.85;2.35;;;;;;;15.68;88.67;97074.94;1829048;77;21467;-56
2022/09/14 07:24:12;;;;;;;5.25;2.90;;;;;;;15.71;86.32;97070.18;1824868;77;21098;-56
2022/09/14 07:26:41;;;;;;;4.62;2.35;;;;;;;15.70;85.73;97068.63;1831409;77;21237;-56
2022/09/14 07:29:12;;;;;;;4.30;2.50;;;;;;;15.65;85.11;97075.06;1833360;76;21529;-56
2022/09/14 07:31:49;;;;;;;5.17;2.58;;;;;;;15.59;84.60;97068.33;1837354;76;22059;-57
2022/09/14 07:34:16;;;;;;;3.70;2.05;;;;;;;15.58;84.84;97060.58;1828977;77;21475;-57
2022/09/14 07:36:43;;;;;;;2.92;2.00;;;;;;;15.59;84.17;97061.58;1836196;77;21051;-57
2022/09/14 07:39:16;;;;;;;3.83;2.58;;;;;;;15.64;83.18;97065.38;1827223;77;22397;-57
2022/09/14 07:41:45;;;;;;;5.00;2.62;;;;;;;15.71;83.44;97063.43;1815869;77;28146;-57
2022/09/14 07:44:15;;;;;;;5.53;2.83;;;;;;;15.78;82.90;97067.67;1832764;77;21396;-57
2022/09/14 07:46:43;;;;;;;4.37;2.65;;;;;;;15.83;81.80;97062.61;1824020;77;21465;-57
2022/09/14 07:49:10;;;;;;;3.47;2.45;;;;;;;15.82;81.85;97068.57;1826623;77;21052;-56
2022/09/14 07:51:37;;;;;;;2.52;2.15;;;;;;;15.81;81.73;97066.98;1834780;77;21228;-56
2022/09/14 07:54:05;;;;;;;3.95;2.40;;;;;;;15.81;81.54;97060.23;1824955;77;21059;-57
2022/09/14 07:56:33;;;;;;;5.28;2.33;;;;;;;15.81;81.55;97069.69;1831698;77;20989;-57
2022/09/14 07:59:00;;;;;;;2.65;2.40;;;;;;;15.81;82.30;97064.29;1837388;77;21072;-61
2022/09/14 08:01:29;;;;;;;7.15;2.60;;;;;;;15.82;81.95;97063.17;1828291;76;21488;-60
2022/09/14 08:04:01;;;;;;;2.35;2.05;;;;;;;15.80;81.86;97062.73;1836309;77;21484;-57
2022/09/14 08:06:28;;;;;;;3.55;2.40;;;;;;;15.80;82.38;97065.44;1833842;77;21039;-57
2022/09/14 08:08:56;;;;;;;4.08;2.52;;;;;;;15.80;82.23;97055.98;1751267;80;21026;-57
2022/09/14 08:11:28;;;;;;;5.25;2.80;;;;;;;15.81;82.74;97069.69;1772261;79;20975;-57
2022/09/14 13:46:18;;;;;;;6.17;3.10;;;;;;;18.50;74.67;97042.41;1837901;76;22656;-61
2022/09/14 13:48:46;;;;;;;3.77;2.85;;;;;;;18.55;74.48;97047.53;1830333;77;21024;-66
2022/09/14 13:51:13;;;;;;;5.33;3.35;;;;;;;18.69;74.25;97043.67;1823879;77;21161;-59
2022/09/14 13:53:48;;;;;;;3.95;2.92;;;;;;;18.81;73.69;97041.55;1834296;77;20961;-60
2022/09/14 13:56:33;;;;;;;3.60;2.85;;;;;;;18.93;72.71;97046.77;1836530;77;20891;-59
2022/09/14 13:59:20;;;;;;;4.25;2.75;;;;;;;19.00;72.20;97041.44;1843007;77;21477;-58
2022/09/14 14:01:59;;;;;;;4.78;3.02;;;;;;;19.02;72.12;97041.05;1836349;76;20983;-59
2022/09/14 14:04:36;;;;;;;4.42;3.35;;;;;;;19.00;71.95;97042.79;1828849;77;21182;-59
2022/09/14 14:07:22;;;;;;;6.25;3.00;;;;;;;19.00;72.42;97049.58;1832546;77;20966;-59
2022/09/14 14:09:56;;;;;;;6.65;2.67;;;;;;;19.00;72.16;97040.08;1828208;77;21314;-59
2022/09/14 14:12:38;;;;;;;2.80;2.50;;;;;;;19.05;71.78;97038.38;1828181;77;21537;-59
2022/09/14 14:15:22;;;;;;;7.78;3.00;;;;;;;19.16;71.35;97039.09;1830186;77;20955;-60
2022/09/14 14:17:49;;;;;;;5.70;2.92;;;;;;;19.32;71.27;97031.54;1829371;77;21349;-59
2022/09/14 14:20:33;;;;;;;4.12;2.75;;;;;;;19.39;70.69;97037.88;1825745;77;21406;-58
2022/09/14 14:23:19;;;;;;;4.87;2.60;;;;;;;19.41;70.28;97038.84;1827941;77;21062;-59
2022/09/14 14:25:53;;;;;;;6.22;3.00;;;;;;;19.39;70.23;97038.44;1838523;77;21171;-59
2022/09/14 14:28:28;;;;;;;5.20;2.90;;;;;;;19.38;71.12;97040.41;1832876;77;21502;-59
2022/09/14 14:30:56;;;;;;;2.77;2.50;;;;;;;19.41;71.23;97044.28;1834999;77;22311;-58
2022/09/14 14:33:24;;;;;;;3.55;2.47;;;;;;;19.45;70.85;97036.98;1823967;77;21007;-58
2022/09/14 14:35:55;;;;;;;4.83;2.70;;;;;;;19.53;70.94;97038.61;1828140;77;21099;-59
2022/09/14 14:38:22;;;;;;;3.87;2.12;;;;;;;19.58;70.86;97037.71;1825387;77;21089;-59
